sensor_id;sensor_type;location;lat;lon;timestamp;P1;durP1;ratioP1;P2;durP2;ratioP2
7823;SDS011;3957;48.61947800;9.05303100;2023-06-24T00:00:33;4.78;;;3.67;;
7823;SDS011;3957;48.61947800;9.05303100;2023-06-24T00:01:35;5.57;;;4.28;;
7823;SDS011;3957;48.61947800;9.05303100;2023-06-24T00:02:38;5.10;;;3.80;;
7823;SDS011;3957;48.61947800;9.05303100;2023-06-24T00:03:40;4.30;;;3.20;;
7823;SDS011;3957;48.61947800;9.05303100;2023-06-24T00:04:41;4.65;;;3.88;;
7823;SDS011;3957;48.61947800;9.05303100;2023-06-24T00:05:43;5.18;;;3.83;;
7823;SDS011;3957;48.61947800;9.05303100;2023-06-24T00:06:46;4.18;;;3.67;;
7823;SDS011;3957;48.61947800;9.05303100;2023-06-24T00:07:47;5.07;;;3.30;;
7823;SDS011;3957;48.61947800;9.05303100;2023-06-24T00:08:49;6.07;;;3.72;;
7823;SDS011;3957;48.61947800;9.05303100;2023-06-24T00:09:51;6.07;;;3.70;;
7823;SDS011;3957;48.61947800;9.05303100;2023-06-24T00:10:53;4.55;;;3.80;;
7823;SDS011;3957;48.61947800;9.05303100;2023-06-24T00:11:54;5.43;;;3.88;;
7823;SDS011;3957;48.61947800;9.05303100;2023-06-24T00:12:57;4.90;;;3.78;;
7823;SDS011;3957;48.61947800;9.05303100;2023-06-24T00:14:02;6.65;;;4.05;;
7823;SDS011;3957;48.61947800;9.05303100;2023-06-24T00:15:04;4.47;;;3.75;;
7823;SDS011;3957;48.61947800;9.05303100;2023-06-24T00:16:07;4.97;;;4.05;;
7823;SDS011;3957;48.61947800;9.05303100;2023-06-24T00:17:09;5.38;;;3.60;;
7823;SDS011;3957;48.61947800;9.05303100;2023-06-24T00:18:10;4.47;;;3.63;;
7823;SDS011;3957;48.61947800;9.05303100;2023-06-24T00:19:12;4.70;;;3.70;;
7823;SDS011;3957;48.61947800;9.05303100;2023-06-24T00:20:13;6.03;;;4.20;;
7823;SDS011;3957;48.61947800;9.05303100;2023-06-24T00:21:16;4.93;;;3.63;;
7823;SDS011;3957;48.61947800;9.05303100;2023-06-24T00:22:18;4.10;;;3.70;;
7823;SDS011;3957;48.61947800;9.05303100;2023-06-24T00:23:21;5.30;;;3.60;;
7823;SDS011;3957;48.61947800;9.05303100;2023-06-24T00:24:26;5.18;;;3.80;;
7823;SDS011;3957;48.61947800;9.05303100;2023-06-24T00:25:28;4.70;;;4.07;;
7823;SDS011;3957;48.61947800;9.05303100;2023-06-24T00:26:30;5.38;;;3.88;;
7823;SDS011;3957;48.61947800;9.05303100;2023-06-24T00:27:33;5.85;;;3.53;;
7823;SDS011;3957;48.61947800;9.05303100;2023-06-24T00:28:34;4.55;;;3.83;;
7823;SDS011;3957;48.61947800;9.05303100;2023-06-24T00:29:37;5.53;;;3.90;;
7823;SDS011;3957;48.61947800;9.05303100;2023-06-24T00:30:39;3.90;;;3.47;;
7823;SDS011;3957;48.61947800;9.05303100;2023-06-24T00:31:40;4.75;;;3.75;;
7823;SDS011;3957;48.61947800;9.05303100;2023-06-24T00:32:43;4.20;;;3.45;;
7823;SDS011;3957;48.61947800;9.05303100;2023-06-24T00:33:44;5.32;;;3.55;;
7823;SDS011;3957;48.61947800;9.05303100;2023-06-24T00:34:46;6.18;;;4.28;;
7823;SDS011;3957;48.61947800;9.05303100;2023-06-24T00:35:50;6.50;;;4.10;;
7823;SDS011;3957;48.61947800;9.05303100;2023-06-24T00:36:52;6.53;;;3.78;;
7823;SDS011;3957;48.61947800;9.05303100;2023-06-24T00:37:53;6.95;;;3.92;;
7823;SDS011;3957;48.61947800;9.05303100;2023-06-24T00:38:59;5.75;;;3.95;;
7823;SDS011;3957;48.61947800;9.05303100;2023-06-24T00:40:07;6.07;;;3.80;;
7823;SDS011;3957;48.61947800;9.05303100;2023-06-24T00:41:12;4.72;;;3.80;;
7823;SDS011;3957;48.61947800;9.05303100;2023-06-24T00:42:17;6.72;;;4.35;;
7823;SDS011;3957;48.61947800;9.05303100;2023-06-24T00:43:18;5.68;;;3.97;;
7823;SDS011;3957;48.61947800;9.05303100;2023-06-24T00:44:21;4.75;;;3.90;;
7823;SDS011;3957;48.61947800;9.05303100;2023-06-24T00:45:22;4.88;;;4.10;;
7823;SDS011;3957;48.61947800;9.05303100;2023-06-24T00:46:25;4.75;;;4.07;;
7823;SDS011;3957;48.61947800;9.05303100;2023-06-24T00:47:27;5.00;;;3.97;;
7823;SDS011;3957;48.61947800;9.05303100;2023-06-24T00:48:36;4.38;;;3.60;;
7823;SDS011;3957;48.61947800;9.05303100;2023-06-24T00:49:37;6.25;;;4.20;;
7823;SDS011;3957;48.61947800;9.05303100;2023-06-24T00:50:39;4.72;;;3.75;;
7823;SDS011;3957;48.61947800;9.05303100;2023-06-24T00:51:43;5.38;;;4.07;;
7823;SDS011;3957;48.61947800;9.05303100;2023-06-24T00:52:49;5.28;;;4.25;;
7823;SDS011;3957;48.61947800;9.05303100;2023-06-24T00:53:51;5.82;;;3.97;;
7823;SDS011;3957;48.61947800;9.05303100;2023-06-24T00:54:53;5.38;;;4.00;;
7823;SDS011;3957;48.61947800;9.05303100;2023-06-24T00:55:57;4.70;;;3.72;;
7823;SDS011;3957;48.61947800;9.05303100;2023-06-24T00:57:04;4.82;;;3.92;;
7823;SDS011;3957;48.61947800;9.05303100;2023-06-24T00:58:06;4.13;;;3.60;;
7823;SDS011;3957;48.61947800;9.05303100;2023-06-24T00:59:08;6.25;;;4.10;;
7823;SDS011;3957;48.61947800;9.05303100;2023-06-24T01:00:14;5.10;;;4.03;;
7823;SDS011;3957;48.61947800;9.05303100;2023-06-24T01:01:17;5.07;;;3.67;;
7823;SDS011;3957;48.61947800;9.05303100;2023-06-24T01:02:20;7.80;;;4.00;;
7823;SDS011;3957;48.61947800;9.05303100;2023-06-24T01:03:24;4.90;;;3.58;;
7823;SDS011;3957;48.61947800;9.05303100;2023-06-24T01:04:27;4.60;;;3.65;;
7823;SDS011;3957;48.61947800;9.05303100;2023-06-24T01:05:29;5.38;;;3.50;;
7823;SDS011;3957;48.61947800;9.05303100;2023-06-24T01:06:37;5.07;;;3.67;;
7823;SDS011;3957;48.61947800;9.05303100;2023-06-24T01:07:45;4.85;;;3.63;;
7823;SDS011;3957;48.61947800;9.05303100;2023-06-24T01:08:59;4.57;;;3.63;;
7823;SDS011;3957;48.61947800;9.05303100;2023-06-24T01:10:04;4.72;;;4.05;;
7823;SDS011;3957;48.61947800;9.05303100;2023-06-24T01:11:09;6.47;;;4.15;;
7823;SDS011;3957;48.61947800;9.05303100;2023-06-24T01:12:11;4.72;;;4.30;;
7823;SDS011;3957;48.61947800;9.05303100;2023-06-24T01:13:13;6.57;;;3.80;;
7823;SDS011;3957;48.61947800;9.05303100;2023-06-24T01:14:15;5.38;;;4.38;;
7823;SDS011;3957;48.61947800;9.05303100;2023-06-24T01:15:21;6.65;;;4.10;;
7823;SDS011;3957;48.61947800;9.05303100;2023-06-24T01:17:53;5.57;;;3.90;;
7823;SDS011;3957;48.61947800;9.05303100;2023-06-24T01:19:06;4.50;;;4.03;;
7823;SDS011;3957;48.61947800;9.05303100;2023-06-24T01:20:34;4.47;;;3.60;;
7823;SDS011;3957;48.61947800;9.05303100;2023-06-24T01:21:46;4.35;;;3.85;;
7823;SDS011;3957;48.61947800;9.05303100;2023-06-24T01:29:57;6.25;;;4.05;;
7823;SDS011;3957;48.61947800;9.05303100;2023-06-24T01:32:42;5.28;;;4.18;;
7823;SDS011;3957;48.61947800;9.05303100;2023-06-24T01:33:48;5.15;;;4.00;;
7823;SDS011;3957;48.61947800;9.05303100;2023-06-24T01:34:57;9.52;;;4.47;;
7823;SDS011;3957;48.61947800;9.05303100;2023-06-24T01:36:01;5.88;;;3.65;;
7823;SDS011;3957;48.61947800;9.05303100;2023-06-24T01:37:20;4.68;;;3.90;;
7823;SDS011;3957;48.61947800;9.05303100;2023-06-24T01:38:36;6.05;;;4.38;;
7823;SDS011;3957;48.61947800;9.05303100;2023-06-24T01:40:00;5.40;;;4.22;;
7823;SDS011;3957;48.61947800;9.05303100;2023-06-24T01:41:18;5.55;;;4.18;;
7823;SDS011;3957;48.61947800;9.05303100;2023-06-24T01:42:23;4.50;;;3.92;;
7823;SDS011;3957;48.61947800;9.05303100;2023-06-24T01:43:25;5.75;;;4.40;;
7823;SDS011;3957;48.61947800;9.05303100;2023-06-24T01:44:27;5.90;;;3.93;;
7823;SDS011;3957;48.61947800;9.05303100;2023-06-24T01:45:35;5.82;;;3.95;;
7823;SDS011;3957;48.61947800;9.05303100;2023-06-24T01:46:38;4.95;;;3.92;;
7823;SDS011;3957;48.61947800;9.05303100;2023-06-24T01:47:43;5.30;;;3.63;;
7823;SDS011;3957;48.61947800;9.05303100;2023-06-24T01:48:47;4.65;;;3.78;;
7823;SDS011;3957;48.61947800;9.05303100;2023-06-24T01:49:55;5.55;;;4.07;;
7823;SDS011;3957;48.61947800;9.05303100;2023-06-24T01:51:06;5.13;;;4.00;;
7823;SDS011;3957;48.61947800;9.05303100;2023-06-24T01:52:10;5.90;;;4.40;;
7823;SDS011;3957;48.61947800;9.05303100;2023-06-24T01:53:13;6.63;;;4.18;;
7823;SDS011;3957;48.61947800;9.05303100;2023-06-24T01:54:17;5.82;;;4.20;;
7823;SDS011;3957;48.61947800;9.05303100;2023-06-24T01:55:21;4.95;;;4.00;;
7823;SDS011;3957;48.61947800;9.05303100;2023-06-24T01:56:25;4.60;;;3.95;;
7823;SDS011;3957;48.61947800;9.05303100;2023-06-24T01:57:28;6.10;;;4.63;;
7823;SDS011;3957;48.61947800;9.05303100;2023-06-24T01:58:34;8.80;;;5.10;;
7823;SDS011;3957;48.61947800;9.05303100;2023-06-24T01:59:38;5.68;;;4.50;;
7823;SDS011;3957;48.61947800;9.05303100;2023-06-24T02:00:42;5.88;;;4.32;;
7823;SDS011;3957;48.61947800;9.05303100;2023-06-24T02:01:44;5.45;;;4.80;;
7823;SDS011;3957;48.61947800;9.05303100;2023-06-24T02:02:47;5.45;;;4.10;;
7823;SDS011;3957;48.61947800;9.05303100;2023-06-24T02:03:51;5.65;;;4.68;;
7823;SDS011;3957;48.61947800;9.05303100;2023-06-24T02:04:54;4.70;;;3.95;;
7823;SDS011;3957;48.61947800;9.05303100;2023-06-24T02:05:57;6.53;;;4.53;;
7823;SDS011;3957;48.61947800;9.05303100;2023-06-24T02:07:02;4.88;;;4.07;;
7823;SDS011;3957;48.61947800;9.05303100;2023-06-24T02:08:06;5.50;;;4.10;;
7823;SDS011;3957;48.61947800;9.05303100;2023-06-24T02:09:11;4.47;;;3.60;;
7823;SDS011;3957;48.61947800;9.05303100;2023-06-24T02:10:15;5.13;;;4.05;;
7823;SDS011;3957;48.61947800;9.05303100;2023-06-24T02:11:18;5.57;;;4.03;;
7823;SDS011;3957;48.61947800;9.05303100;2023-06-24T02:12:23;4.72;;;3.90;;
7823;SDS011;3957;48.61947800;9.05303100;2023-06-24T02:13:28;4.70;;;3.90;;
7823;SDS011;3957;48.61947800;9.05303100;2023-06-24T02:14:33;5.38;;;4.00;;
7823;SDS011;3957;48.61947800;9.05303100;2023-06-24T02:15:38;4.80;;;4.20;;
7823;SDS011;3957;48.61947800;9.05303100;2023-06-24T02:16:41;4.85;;;4.00;;
7823;SDS011;3957;48.61947800;9.05303100;2023-06-24T02:17:44;7.85;;;4.07;;
7823;SDS011;3957;48.61947800;9.05303100;2023-06-24T02:18:48;5.40;;;4.07;;
7823;SDS011;3957;48.61947800;9.05303100;2023-06-24T02:19:52;5.60;;;4.07;;
7823;SDS011;3957;48.61947800;9.05303100;2023-06-24T02:20:55;5.50;;;4.20;;
7823;SDS011;3957;48.61947800;9.05303100;2023-06-24T02:21:58;7.53;;;4.28;;
7823;SDS011;3957;48.61947800;9.05303100;2023-06-24T02:23:01;5.10;;;4.28;;
7823;SDS011;3957;48.61947800;9.05303100;2023-06-24T02:24:03;5.22;;;4.18;;
7823;SDS011;3957;48.61947800;9.05303100;2023-06-24T02:25:06;5.88;;;4.40;;
7823;SDS011;3957;48.61947800;9.05303100;2023-06-24T02:26:09;4.85;;;4.07;;
7823;SDS011;3957;48.61947800;9.05303100;2023-06-24T02:27:12;6.47;;;4.28;;
7823;SDS011;3957;48.61947800;9.05303100;2023-06-24T02:28:14;7.15;;;4.13;;
7823;SDS011;3957;48.61947800;9.05303100;2023-06-24T02:29:16;5.00;;;4.10;;
7823;SDS011;3957;48.61947800;9.05303100;2023-06-24T02:30:19;8.50;;;4.30;;
7823;SDS011;3957;48.61947800;9.05303100;2023-06-24T02:31:22;5.60;;;4.32;;
7823;SDS011;3957;48.61947800;9.05303100;2023-06-24T02:32:24;6.28;;;4.03;;
7823;SDS011;3957;48.61947800;9.05303100;2023-06-24T02:33:27;4.93;;;4.20;;
7823;SDS011;3957;48.61947800;9.05303100;2023-06-24T02:34:28;5.72;;;4.30;;
7823;SDS011;3957;48.61947800;9.05303100;2023-06-24T02:35:31;5.18;;;3.90;;
7823;SDS011;3957;48.61947800;9.05303100;2023-06-24T02:36:33;5.95;;;4.90;;
7823;SDS011;3957;48.61947800;9.05303100;2023-06-24T02:37:36;6.20;;;4.57;;
7823;SDS011;3957;48.61947800;9.05303100;2023-06-24T02:38:38;6.55;;;4.43;;
7823;SDS011;3957;48.61947800;9.05303100;2023-06-24T02:39:39;8.10;;;4.82;;
7823;SDS011;3957;48.61947800;9.05303100;2023-06-24T02:40:45;6.32;;;4.40;;
7823;SDS011;3957;48.61947800;9.05303100;2023-06-24T02:41:47;6.53;;;4.78;;
7823;SDS011;3957;48.61947800;9.05303100;2023-06-24T02:42:50;7.05;;;4.45;;
7823;SDS011;3957;48.61947800;9.05303100;2023-06-24T02:43:52;6.22;;;4.70;;
7823;SDS011;3957;48.61947800;9.05303100;2023-06-24T02:44:54;5.53;;;4.88;;
7823;SDS011;3957;48.61947800;9.05303100;2023-06-24T02:45:55;6.28;;;4.60;;
7823;SDS011;3957;48.61947800;9.05303100;2023-06-24T02:47:01;6.60;;;4.75;;
7823;SDS011;3957;48.61947800;9.05303100;2023-06-24T02:48:04;6.78;;;4.82;;
7823;SDS011;3957;48.61947800;9.05303100;2023-06-24T02:49:08;7.70;;;4.90;;
7823;SDS011;3957;48.61947800;9.05303100;2023-06-24T02:50:12;6.90;;;4.73;;
7823;SDS011;3957;48.61947800;9.05303100;2023-06-24T02:51:13;5.97;;;4.70;;
7823;SDS011;3957;48.61947800;9.05303100;2023-06-24T02:52:16;5.28;;;4.13;;
7823;SDS011;3957;48.61947800;9.05303100;2023-06-24T02:53:19;6.85;;;4.93;;
7823;SDS011;3957;48.61947800;9.05303100;2023-06-24T02:54:22;6.28;;;4.38;;
7823;SDS011;3957;48.61947800;9.05303100;2023-06-24T02:55:49;5.38;;;4.20;;
7823;SDS011;3957;48.61947800;9.05303100;2023-06-24T02:56:52;6.47;;;4.60;;
7823;SDS011;3957;48.61947800;9.05303100;2023-06-24T02:58:03;6.18;;;4.68;;
7823;SDS011;3957;48.61947800;9.05303100;2023-06-24T02:59:09;6.68;;;4.97;;
7823;SDS011;3957;48.61947800;9.05303100;2023-06-24T03:00:11;5.30;;;4.03;;
7823;SDS011;3957;48.61947800;9.05303100;2023-06-24T03:01:33;6.38;;;5.00;;
7823;SDS011;3957;48.61947800;9.05303100;2023-06-24T03:02:40;6.55;;;4.40;;
7823;SDS011;3957;48.61947800;9.05303100;2023-06-24T03:03:44;7.15;;;5.15;;
7823;SDS011;3957;48.61947800;9.05303100;2023-06-24T03:04:51;6.15;;;4.70;;
7823;SDS011;3957;48.61947800;9.05303100;2023-06-24T03:05:53;5.68;;;4.40;;
7823;SDS011;3957;48.61947800;9.05303100;2023-06-24T03:06:59;6.47;;;4.63;;
7823;SDS011;3957;48.61947800;9.05303100;2023-06-24T03:08:02;5.63;;;4.72;;
7823;SDS011;3957;48.61947800;9.05303100;2023-06-24T03:09:05;5.50;;;4.28;;
7823;SDS011;3957;48.61947800;9.05303100;2023-06-24T03:10:10;6.53;;;4.95;;
7823;SDS011;3957;48.61947800;9.05303100;2023-06-24T03:11:12;8.52;;;5.10;;
7823;SDS011;3957;48.61947800;9.05303100;2023-06-24T03:12:15;5.70;;;4.60;;
7823;SDS011;3957;48.61947800;9.05303100;2023-06-24T03:13:17;6.37;;;4.90;;
7823;SDS011;3957;48.61947800;9.05303100;2023-06-24T03:14:24;6.13;;;4.83;;
7823;SDS011;3957;48.61947800;9.05303100;2023-06-24T03:15:27;8.45;;;5.32;;
7823;SDS011;3957;48.61947800;9.05303100;2023-06-24T03:16:29;8.48;;;4.82;;
7823;SDS011;3957;48.61947800;9.05303100;2023-06-24T03:17:36;6.90;;;4.70;;
7823;SDS011;3957;48.61947800;9.05303100;2023-06-24T03:18:41;7.43;;;4.63;;
7823;SDS011;3957;48.61947800;9.05303100;2023-06-24T03:19:43;6.38;;;4.97;;
7823;SDS011;3957;48.61947800;9.05303100;2023-06-24T03:20:45;6.20;;;4.50;;
7823;SDS011;3957;48.61947800;9.05303100;2023-06-24T03:21:52;5.93;;;4.78;;
7823;SDS011;3957;48.61947800;9.05303100;2023-06-24T03:22:54;5.95;;;4.30;;
7823;SDS011;3957;48.61947800;9.05303100;2023-06-24T03:23:57;5.72;;;4.38;;
7823;SDS011;3957;48.61947800;9.05303100;2023-06-24T03:25:02;7.47;;;4.70;;
7823;SDS011;3957;48.61947800;9.05303100;2023-06-24T03:26:03;5.82;;;4.57;;
7823;SDS011;3957;48.61947800;9.05303100;2023-06-24T03:27:05;7.50;;;4.72;;
7823;SDS011;3957;48.61947800;9.05303100;2023-06-24T03:28:12;6.43;;;4.83;;
7823;SDS011;3957;48.61947800;9.05303100;2023-06-24T03:29:20;5.78;;;4.82;;
7823;SDS011;3957;48.61947800;9.05303100;2023-06-24T03:30:31;7.07;;;4.80;;
7823;SDS011;3957;48.61947800;9.05303100;2023-06-24T03:31:32;5.60;;;4.75;;
7823;SDS011;3957;48.61947800;9.05303100;2023-06-24T03:32:34;7.85;;;4.70;;
7823;SDS011;3957;48.61947800;9.05303100;2023-06-24T03:33:39;5.18;;;4.40;;
7823;SDS011;3957;48.61947800;9.05303100;2023-06-24T03:34:47;7.55;;;5.15;;
7823;SDS011;3957;48.61947800;9.05303100;2023-06-24T03:35:48;7.70;;;5.07;;
7823;SDS011;3957;48.61947800;9.05303100;2023-06-24T03:36:54;5.93;;;4.80;;
7823;SDS011;3957;48.61947800;9.05303100;2023-06-24T03:37:56;8.77;;;4.57;;
7823;SDS011;3957;48.61947800;9.05303100;2023-06-24T03:38:57;5.20;;;4.25;;
7823;SDS011;3957;48.61947800;9.05303100;2023-06-24T03:39:59;5.47;;;4.50;;
7823;SDS011;3957;48.61947800;9.05303100;2023-06-24T03:41:00;6.20;;;4.72;;
7823;SDS011;3957;48.61947800;9.05303100;2023-06-24T03:42:02;6.20;;;4.30;;
7823;SDS011;3957;48.61947800;9.05303100;2023-06-24T03:43:04;5.60;;;4.30;;
7823;SDS011;3957;48.61947800;9.05303100;2023-06-24T03:44:07;7.30;;;4.55;;
7823;SDS011;3957;48.61947800;9.05303100;2023-06-24T03:45:09;6.15;;;4.68;;
7823;SDS011;3957;48.61947800;9.05303100;2023-06-24T03:46:12;5.32;;;4.43;;
7823;SDS011;3957;48.61947800;9.05303100;2023-06-24T03:47:14;5.60;;;4.82;;
7823;SDS011;3957;48.61947800;9.05303100;2023-06-24T03:48:16;6.25;;;4.78;;
7823;SDS011;3957;48.61947800;9.05303100;2023-06-24T03:49:17;6.15;;;4.53;;
7823;SDS011;3957;48.61947800;9.05303100;2023-06-24T03:50:19;5.30;;;4.43;;
7823;SDS011;3957;48.61947800;9.05303100;2023-06-24T03:51:22;5.00;;;4.20;;
7823;SDS011;3957;48.61947800;9.05303100;2023-06-24T03:52:24;5.32;;;4.57;;
7823;SDS011;3957;48.61947800;9.05303100;2023-06-24T03:53:26;6.05;;;4.45;;
7823;SDS011;3957;48.61947800;9.05303100;2023-06-24T03:54:28;6.00;;;4.25;;
7823;SDS011;3957;48.61947800;9.05303100;2023-06-24T03:55:29;6.70;;;4.38;;
7823;SDS011;3957;48.61947800;9.05303100;2023-06-24T03:56:32;6.90;;;4.57;;
7823;SDS011;3957;48.61947800;9.05303100;2023-06-24T03:57:33;5.78;;;4.63;;
7823;SDS011;3957;48.61947800;9.05303100;2023-06-24T03:58:35;5.72;;;4.55;;
7823;SDS011;3957;48.61947800;9.05303100;2023-06-24T03:59:37;5.55;;;4.10;;
7823;SDS011;3957;48.61947800;9.05303100;2023-06-24T04:00:38;6.57;;;5.00;;
7823;SDS011;3957;48.61947800;9.05303100;2023-06-24T04:01:41;5.05;;;4.07;;
7823;SDS011;3957;48.61947800;9.05303100;2023-06-24T04:02:43;5.93;;;4.40;;
7823;SDS011;3957;48.61947800;9.05303100;2023-06-24T04:03:46;5.22;;;4.03;;
7823;SDS011;3957;48.61947800;9.05303100;2023-06-24T04:04:49;5.03;;;4.13;;
7823;SDS011;3957;48.61947800;9.05303100;2023-06-24T04:05:54;6.45;;;4.63;;
7823;SDS011;3957;48.61947800;9.05303100;2023-06-24T04:06:56;6.75;;;4.55;;
7823;SDS011;3957;48.61947800;9.05303100;2023-06-24T04:07:58;4.55;;;3.80;;
7823;SDS011;3957;48.61947800;9.05303100;2023-06-24T04:09:00;5.88;;;4.30;;
7823;SDS011;3957;48.61947800;9.05303100;2023-06-24T04:10:03;4.63;;;4.18;;
7823;SDS011;3957;48.61947800;9.05303100;2023-06-24T04:11:10;6.47;;;4.35;;
7823;SDS011;3957;48.61947800;9.05303100;2023-06-24T04:12:13;7.80;;;4.55;;
7823;SDS011;3957;48.61947800;9.05303100;2023-06-24T04:13:14;5.40;;;3.95;;
7823;SDS011;3957;48.61947800;9.05303100;2023-06-24T04:14:16;6.95;;;4.30;;
7823;SDS011;3957;48.61947800;9.05303100;2023-06-24T04:15:18;5.53;;;3.80;;
7823;SDS011;3957;48.61947800;9.05303100;2023-06-24T04:16:21;5.13;;;4.10;;
7823;SDS011;3957;48.61947800;9.05303100;2023-06-24T04:17:23;6.13;;;4.47;;
7823;SDS011;3957;48.61947800;9.05303100;2023-06-24T04:18:25;4.20;;;3.78;;
7823;SDS011;3957;48.61947800;9.05303100;2023-06-24T04:19:28;5.00;;;3.87;;
7823;SDS011;3957;48.61947800;9.05303100;2023-06-24T04:20:30;6.40;;;4.22;;
7823;SDS011;3957;48.61947800;9.05303100;2023-06-24T04:21:32;4.75;;;4.00;;
7823;SDS011;3957;48.61947800;9.05303100;2023-06-24T04:22:34;5.65;;;4.25;;
7823;SDS011;3957;48.61947800;9.05303100;2023-06-24T04:23:37;5.70;;;4.10;;
7823;SDS011;3957;48.61947800;9.05303100;2023-06-24T04:24:39;4.80;;;3.70;;
7823;SDS011;3957;48.61947800;9.05303100;2023-06-24T04:25:41;4.97;;;4.05;;
7823;SDS011;3957;48.61947800;9.05303100;2023-06-24T04:26:43;4.78;;;3.67;;
7823;SDS011;3957;48.61947800;9.05303100;2023-06-24T04:27:45;4.22;;;3.33;;
7823;SDS011;3957;48.61947800;9.05303100;2023-06-24T04:28:46;4.63;;;3.22;;
7823;SDS011;3957;48.61947800;9.05303100;2023-06-24T04:29:48;3.88;;;3.28;;
7823;SDS011;3957;48.61947800;9.05303100;2023-06-24T04:30:50;4.30;;;3.40;;
7823;SDS011;3957;48.61947800;9.05303100;2023-06-24T04:31:52;4.20;;;3.08;;
7823;SDS011;3957;48.61947800;9.05303100;2023-06-24T04:32:53;4.45;;;3.20;;
7823;SDS011;3957;48.61947800;9.05303100;2023-06-24T04:33:56;3.90;;;3.20;;
7823;SDS011;3957;48.61947800;9.05303100;2023-06-24T04:34:58;4.05;;;3.17;;
7823;SDS011;3957;48.61947800;9.05303100;2023-06-24T04:36:02;3.47;;;3.17;;
7823;SDS011;3957;48.61947800;9.05303100;2023-06-24T04:37:04;4.03;;;3.33;;
7823;SDS011;3957;48.61947800;9.05303100;2023-06-24T04:38:06;5.55;;;3.30;;
7823;SDS011;3957;48.61947800;9.05303100;2023-06-24T04:39:08;5.18;;;3.50;;
7823;SDS011;3957;48.61947800;9.05303100;2023-06-24T04:40:09;4.15;;;3.50;;
7823;SDS011;3957;48.61947800;9.05303100;2023-06-24T04:41:11;4.65;;;3.50;;
7823;SDS011;3957;48.61947800;9.05303100;2023-06-24T04:42:13;4.10;;;3.67;;
7823;SDS011;3957;48.61947800;9.05303100;2023-06-24T04:43:16;3.90;;;3.38;;
7823;SDS011;3957;48.61947800;9.05303100;2023-06-24T04:44:17;4.45;;;3.22;;
7823;SDS011;3957;48.61947800;9.05303100;2023-06-24T04:45:21;4.13;;;3.25;;
7823;SDS011;3957;48.61947800;9.05303100;2023-06-24T04:46:22;4.50;;;3.40;;
7823;SDS011;3957;48.61947800;9.05303100;2023-06-24T04:47:24;5.10;;;3.45;;
7823;SDS011;3957;48.61947800;9.05303100;2023-06-24T04:48:26;3.75;;;3.28;;
7823;SDS011;3957;48.61947800;9.05303100;2023-06-24T04:49:28;3.63;;;3.05;;
7823;SDS011;3957;48.61947800;9.05303100;2023-06-24T04:50:30;5.37;;;3.37;;
7823;SDS011;3957;48.61947800;9.05303100;2023-06-24T04:51:31;3.78;;;3.05;;
7823;SDS011;3957;48.61947800;9.05303100;2023-06-24T04:52:33;4.25;;;3.17;;
7823;SDS011;3957;48.61947800;9.05303100;2023-06-24T04:53:35;4.90;;;3.20;;
7823;SDS011;3957;48.61947800;9.05303100;2023-06-24T04:54:37;4.00;;;3.15;;
7823;SDS011;3957;48.61947800;9.05303100;2023-06-24T04:55:38;5.88;;;3.03;;
7823;SDS011;3957;48.61947800;9.05303100;2023-06-24T04:56:40;3.95;;;3.08;;
7823;SDS011;3957;48.61947800;9.05303100;2023-06-24T04:57:41;3.85;;;2.67;;
7823;SDS011;3957;48.61947800;9.05303100;2023-06-24T04:58:43;3.13;;;2.65;;
7823;SDS011;3957;48.61947800;9.05303100;2023-06-24T04:59:45;3.47;;;2.70;;
7823;SDS011;3957;48.61947800;9.05303100;2023-06-24T05:00:46;3.40;;;2.75;;
7823;SDS011;3957;48.61947800;9.05303100;2023-06-24T05:01:48;4.03;;;3.00;;
7823;SDS011;3957;48.61947800;9.05303100;2023-06-24T05:02:50;3.63;;;2.85;;
7823;SDS011;3957;48.61947800;9.05303100;2023-06-24T05:03:52;3.10;;;2.80;;
7823;SDS011;3957;48.61947800;9.05303100;2023-06-24T05:04:53;3.72;;;3.08;;
7823;SDS011;3957;48.61947800;9.05303100;2023-06-24T05:05:55;3.22;;;2.70;;
7823;SDS011;3957;48.61947800;9.05303100;2023-06-24T05:06:57;4.88;;;3.00;;
7823;SDS011;3957;48.61947800;9.05303100;2023-06-24T05:07:58;3.08;;;2.67;;
7823;SDS011;3957;48.61947800;9.05303100;2023-06-24T05:09:00;2.92;;;2.58;;
7823;SDS011;3957;48.61947800;9.05303100;2023-06-24T05:10:02;4.88;;;2.78;;
7823;SDS011;3957;48.61947800;9.05303100;2023-06-24T05:11:03;3.37;;;2.67;;
7823;SDS011;3957;48.61947800;9.05303100;2023-06-24T05:12:05;3.10;;;2.75;;
7823;SDS011;3957;48.61947800;9.05303100;2023-06-24T05:13:08;3.87;;;3.07;;
7823;SDS011;3957;48.61947800;9.05303100;2023-06-24T05:14:09;3.95;;;2.97;;
7823;SDS011;3957;48.61947800;9.05303100;2023-06-24T05:15:11;2.95;;;2.63;;
7823;SDS011;3957;48.61947800;9.05303100;2023-06-24T05:16:13;3.42;;;2.80;;
7823;SDS011;3957;48.61947800;9.05303100;2023-06-24T05:17:14;3.60;;;2.72;;
7823;SDS011;3957;48.61947800;9.05303100;2023-06-24T05:18:16;2.92;;;2.50;;
7823;SDS011;3957;48.61947800;9.05303100;2023-06-24T05:19:18;4.40;;;2.90;;
7823;SDS011;3957;48.61947800;9.05303100;2023-06-24T05:20:19;3.65;;;2.75;;
7823;SDS011;3957;48.61947800;9.05303100;2023-06-24T05:21:21;3.70;;;2.78;;
7823;SDS011;3957;48.61947800;9.05303100;2023-06-24T05:22:22;5.03;;;2.65;;
7823;SDS011;3957;48.61947800;9.05303100;2023-06-24T05:23:25;3.45;;;2.90;;
7823;SDS011;3957;48.61947800;9.05303100;2023-06-24T05:24:26;5.15;;;2.70;;
7823;SDS011;3957;48.61947800;9.05303100;2023-06-24T05:25:28;3.22;;;2.58;;
7823;SDS011;3957;48.61947800;9.05303100;2023-06-24T05:26:29;2.75;;;2.35;;
7823;SDS011;3957;48.61947800;9.05303100;2023-06-24T05:27:31;5.55;;;2.70;;
7823;SDS011;3957;48.61947800;9.05303100;2023-06-24T05:28:33;4.15;;;2.88;;
7823;SDS011;3957;48.61947800;9.05303100;2023-06-24T05:29:34;4.45;;;2.92;;
7823;SDS011;3957;48.61947800;9.05303100;2023-06-24T05:30:36;4.20;;;2.88;;
7823;SDS011;3957;48.61947800;9.05303100;2023-06-24T05:31:39;4.88;;;3.00;;
7823;SDS011;3957;48.61947800;9.05303100;2023-06-24T05:32:41;5.20;;;2.97;;
7823;SDS011;3957;48.61947800;9.05303100;2023-06-24T05:33:43;3.08;;;2.75;;
7823;SDS011;3957;48.61947800;9.05303100;2023-06-24T05:34:44;3.95;;;2.90;;
7823;SDS011;3957;48.61947800;9.05303100;2023-06-24T05:35:46;3.92;;;2.50;;
7823;SDS011;3957;48.61947800;9.05303100;2023-06-24T05:36:47;3.38;;;2.60;;
7823;SDS011;3957;48.61947800;9.05303100;2023-06-24T05:37:49;3.45;;;2.88;;
7823;SDS011;3957;48.61947800;9.05303100;2023-06-24T05:38:50;3.22;;;2.90;;
7823;SDS011;3957;48.61947800;9.05303100;2023-06-24T05:39:52;3.78;;;2.95;;
7823;SDS011;3957;48.61947800;9.05303100;2023-06-24T05:40:54;3.47;;;2.70;;
7823;SDS011;3957;48.61947800;9.05303100;2023-06-24T05:41:55;3.90;;;2.75;;
7823;SDS011;3957;48.61947800;9.05303100;2023-06-24T05:42:57;3.90;;;2.72;;
7823;SDS011;3957;48.61947800;9.05303100;2023-06-24T05:44:02;3.40;;;2.50;;
7823;SDS011;3957;48.61947800;9.05303100;2023-06-24T05:45:05;3.67;;;2.80;;
7823;SDS011;3957;48.61947800;9.05303100;2023-06-24T05:46:07;2.75;;;2.38;;
7823;SDS011;3957;48.61947800;9.05303100;2023-06-24T05:47:09;4.10;;;3.20;;
7823;SDS011;3957;48.61947800;9.05303100;2023-06-24T05:48:11;2.40;;;2.20;;
7823;SDS011;3957;48.61947800;9.05303100;2023-06-24T05:49:12;3.03;;;2.70;;
7823;SDS011;3957;48.61947800;9.05303100;2023-06-24T05:50:14;3.13;;;2.80;;
7823;SDS011;3957;48.61947800;9.05303100;2023-06-24T05:51:15;3.28;;;2.65;;